Jekyll Island, GA (31527)

10:58 PM EDT on April 25, 2015 (GMT -0400)
McKinnon | | Change Station
CLOSE
Current Station
Airport
Location: Saint Simons Island,
Elevation: 20 ft
Nearby Weather Stations
Active Advisory: Severe Thunderstorm Watch

Elev 20 ft 31.15 °N, 81.39 °W | Updated 15 minutes ago

Mostly Cloudy
Mostly Cloudy
70 °F
Feels Like 70 °F
N
6
Wind Variable Wind from West

Today
High -- | Low -- °F
--% Chance of Precip.
Yesterday
High -- | Low -- °F
Precip. -- in
6:47 AM 8:00 PM
Waxing Crescent, 51% visible
Pressure 29.75 in
Visibility 10.0 miles
Clouds Few 1700 ft
Scattered Clouds 2400 ft
Mostly Cloudy 12000 ft
Dew Point 67 °F
Humidity 90%
Rainfall 0.05 in
Snow Depth Not available.
UV 0 out of 12
Pollen 7.20 out of 12
Air Quality Not available.
Flu Activity Sporadic
SPECI KSSI 260243Z AUTO 26005KT 10SM FEW017 SCT024 BKN120 21/19 A2975 RMK AO2 LTG DSNT E AND SE RAE35 TSE17 PRESFR P0004 T02110194

More Conditions Fewer Conditions

Pressure 29.75 in
Visibility 10.0 miles
Clouds Few 1700 ft
Scattered Clouds 2400 ft
Mostly Cloudy 12000 ft
Dew Point 67 °F
Humidity 90%
Rainfall 0.05 in
Snow Depth Not available.
UV 0 out of 12
Pollen 7.20 out of 12
Air Quality Not available.
Flu Activity Sporadic
SPECI KSSI 260243Z AUTO 26005KT 10SM FEW017 SCT024 BKN120 21/19 A2975 RMK AO2 LTG DSNT E AND SE RAE35 TSE17 PRESFR P0004 T02110194

More Conditions Fewer Conditions

10-Day Weather Forecast

Almanac

Astronomy

Apr. 25, 2015 Rise Set
Actual Time
Civil Twilight
Nautical Twilight
Astronomical Twilight
Moon
Length of Visible Light
Length of Day
Tomorrow will be .
, % of the Moon is Illuminated

Today's Extremes

State Highs State Lows

Community

WunderPhotos

Upload Photos

1,816,909 photos uploaded!

WunderBlogs® & News

Nearby

Air Quality

  Air Quality AQ Index Pollutant
Not available.

Snow Depth

Station Depth Elevation

Earthquake Activity

City Distance Mag. Time & Date
Minimum magnitude displayed is 2.5.

Coastal Water Temperatures

Place Temperature

Stations

Nearby Weather Stations

Station Location Temp. Windchill Dew Point Humidity Wind Precip. Elev Updated Type
                   
Severe Thunderstorm Watch
Statement as of 10:52 PM EDT on April 25, 2015

Severe Thunderstorm Watch 114 remains in effect until 1100 PM EDT

GA
. Georgia counties included are

Appling Atkinson Bacon
Brantley Camden Charlton
Clinch Coffee Echols
Glynn Jeff Davis Pierce
Ware Wayne